createdAt,value
2018-02-08T00:00:22.146Z,-3.65
2018-02-08T00:01:22.155Z,-3.65
2018-02-08T00:02:22.160Z,-3.62
2018-02-08T00:03:22.176Z,-3.64
2018-02-08T00:04:22.176Z,-3.62
2018-02-08T00:05:22.191Z,-3.66
2018-02-08T00:06:22.190Z,-3.64
2018-02-08T00:07:22.189Z,-3.71
2018-02-08T00:08:22.206Z,-3.62
2018-02-08T00:09:22.209Z,-3.66
2018-02-08T00:10:22.219Z,-3.66
2018-02-08T00:11:22.222Z,-3.77
2018-02-08T00:12:22.222Z,-3.74
2018-02-08T00:13:22.235Z,-3.68
2018-02-08T00:14:22.244Z,-3.69
2018-02-08T00:15:22.247Z,-3.77
2018-02-08T00:16:22.265Z,-3.75
2018-02-08T00:17:22.284Z,-3.78
2018-02-08T00:18:22.264Z,-3.75
2018-02-08T00:19:22.282Z,-3.81
2018-02-08T00:20:22.284Z,-3.75
2018-02-08T00:21:22.299Z,-3.83
2018-02-08T00:22:22.304Z,-3.80
2018-02-08T00:23:22.312Z,-3.75
2018-02-08T00:24:22.314Z,-3.80
2018-02-08T00:25:22.313Z,-3.85
2018-02-08T00:26:22.326Z,-3.83
2018-02-08T00:27:22.335Z,-3.85
2018-02-08T00:28:22.341Z,-3.84
2018-02-08T00:29:22.357Z,-3.81
2018-02-08T00:30:22.364Z,-3.87
2018-02-08T00:31:22.362Z,-3.81
2018-02-08T00:32:22.371Z,-3.90
2018-02-08T00:33:22.375Z,-3.90
2018-02-08T00:34:22.380Z,-3.85
2018-02-08T00:35:22.381Z,-3.81
2018-02-08T00:36:22.391Z,-3.90
2018-02-08T00:37:22.398Z,-3.85
2018-02-08T00:38:22.408Z,-3.88
2018-02-08T00:39:22.420Z,-3.91
2018-02-08T00:40:22.427Z,-3.87
2018-02-08T00:41:22.420Z,-3.94
2018-02-08T00:42:22.428Z,-3.98
2018-02-08T00:43:22.441Z,-3.94
2018-02-08T00:44:22.460Z,-3.94
2018-02-08T00:45:22.457Z,-3.98
2018-02-08T00:46:22.458Z,-3.91
2018-02-08T00:47:22.457Z,-3.99
2018-02-08T00:48:22.477Z,-3.99
2018-02-08T00:49:22.476Z,-4.04
2018-02-08T00:50:22.491Z,-4.01
2018-02-08T00:51:22.501Z,-4.08
2018-02-08T00:52:22.496Z,-4.04
2018-02-08T00:53:22.518Z,-4.01
2018-02-08T00:54:22.518Z,-4.12
2018-02-08T00:55:22.519Z,-4.06
2018-02-08T00:56:22.530Z,-4.05
2018-02-08T00:57:22.542Z,-4.05
2018-02-08T00:58:22.535Z,-4.06
2018-02-08T00:59:22.551Z,-4.13
2018-02-08T01:00:22.558Z,-4.16
2018-02-08T01:01:22.563Z,-4.14
2018-02-08T01:02:22.576Z,-4.16
2018-02-08T01:03:22.565Z,-4.17
2018-02-08T01:04:22.575Z,-4.17
2018-02-08T01:05:22.581Z,-4.20
2018-02-08T01:06:22.601Z,-4.19
2018-02-08T01:07:22.608Z,-4.19
2018-02-08T01:08:22.612Z,-4.19
2018-02-08T01:09:22.606Z,-4.17
2018-02-08T01:10:22.615Z,-4.20
2018-02-08T01:11:22.640Z,-4.24
2018-02-08T01:12:22.634Z,-4.27
2018-02-08T01:13:22.644Z,-4.40
2018-02-08T01:14:22.639Z,-4.34
2018-02-08T01:15:22.644Z,-4.34
2018-02-08T01:16:22.659Z,-4.23
2018-02-08T01:17:22.663Z,-4.35
2018-02-08T01:18:22.676Z,-4.35
2018-02-08T01:19:22.675Z,-4.31
2018-02-08T01:20:22.696Z,-4.31
2018-02-08T01:21:22.694Z,-4.33
2018-02-08T01:22:22.698Z,-4.35
2018-02-08T01:23:22.702Z,-4.34
2018-02-08T01:24:22.718Z,-4.35
2018-02-08T01:25:22.716Z,-4.45
2018-02-08T01:26:22.720Z,-4.35
2018-02-08T01:27:22.730Z,-4.37
2018-02-08T01:28:22.737Z,-4.38
2018-02-08T01:29:22.755Z,-4.44
2018-02-08T01:30:22.764Z,-4.41
2018-02-08T01:31:22.754Z,-4.44
2018-02-08T01:32:22.766Z,-4.44
2018-02-08T01:33:22.779Z,-4.44
2018-02-08T01:34:22.776Z,-4.42
2018-02-08T01:35:22.779Z,-4.35
2018-02-08T01:36:22.787Z,-4.45
2018-02-08T01:37:22.796Z,-4.47
2018-02-08T01:38:22.820Z,-4.45
2018-02-08T01:39:22.812Z,-4.44
2018-02-08T01:40:22.833Z,-4.42
2018-02-08T01:41:22.815Z,-4.42
2018-02-08T01:42:22.824Z,-4.44
2018-02-08T01:43:22.837Z,-4.51
2018-02-08T01:44:22.840Z,-4.47
2018-02-08T01:45:22.845Z,-4.52
2018-02-08T01:46:22.855Z,-4.41
2018-02-08T01:47:22.854Z,-4.51
2018-02-08T01:48:22.868Z,-4.58
2018-02-08T01:49:22.879Z,-4.52
2018-02-08T01:50:22.871Z,-4.45
2018-02-08T01:51:22.886Z,-4.55
2018-02-08T01:52:22.890Z,-4.49
2018-02-08T01:53:22.899Z,-4.55
2018-02-08T01:54:22.915Z,-4.52
2018-02-08T01:55:22.901Z,-4.51
2018-02-08T01:56:22.919Z,-4.59
2018-02-08T01:57:22.918Z,-4.55
2018-02-08T01:58:22.926Z,-4.56
2018-02-08T01:59:22.940Z,-4.56
2018-02-08T02:00:22.936Z,-4.58
2018-02-08T02:01:22.951Z,-4.59
2018-02-08T02:02:22.960Z,-4.62
2018-02-08T02:03:22.960Z,-4.58
2018-02-08T02:04:22.979Z,-4.58
2018-02-08T02:05:22.965Z,-4.59
2018-02-08T02:06:22.979Z,-4.69
2018-02-08T02:07:22.987Z,-4.59
2018-02-08T02:08:22.992Z,-4.56
2018-02-08T02:09:23.006Z,-4.65
2018-02-08T02:10:23.004Z,-4.56
2018-02-08T02:11:23.011Z,-4.65
2018-02-08T02:12:23.024Z,-4.67
2018-02-08T02:13:23.022Z,-4.58
2018-02-08T02:14:23.026Z,-4.62
2018-02-08T02:15:23.036Z,-4.59
2018-02-08T02:16:23.040Z,-4.61
2018-02-08T02:17:23.052Z,-4.70
2018-02-08T02:18:23.062Z,-4.67
2018-02-08T02:19:23.058Z,-4.62
2018-02-08T02:20:23.070Z,-4.61
2018-02-08T02:21:23.072Z,-4.65
2018-02-08T02:22:23.083Z,-4.73
2018-02-08T02:23:23.094Z,-4.74
2018-02-08T02:24:23.087Z,-4.67
2018-02-08T02:25:23.098Z,-4.74
2018-02-08T02:26:23.109Z,-4.61
2018-02-08T02:27:23.113Z,-4.71
2018-02-08T02:28:23.127Z,-4.63
2018-02-08T02:29:23.118Z,-4.71
2018-02-08T02:30:23.128Z,-4.73
2018-02-08T02:31:23.139Z,-4.69
2018-02-08T02:32:23.141Z,-4.67
2018-02-08T02:33:23.158Z,-4.71
2018-02-08T02:34:23.151Z,-4.73
2018-02-08T02:35:23.159Z,-4.67
2018-02-08T02:36:23.173Z,-4.73
2018-02-08T02:37:23.176Z,-4.71
2018-02-08T02:38:23.175Z,-4.74
2018-02-08T02:39:23.189Z,-4.76
2018-02-08T02:40:23.188Z,-4.73
2018-02-08T02:41:23.208Z,-4.76
2018-02-08T02:42:23.210Z,-4.83
2018-02-08T02:43:23.206Z,-4.87
2018-02-08T02:44:23.221Z,-4.71
2018-02-08T02:45:23.225Z,-4.80
2018-02-08T02:46:23.233Z,-4.76
2018-02-08T02:47:23.243Z,-4.71
2018-02-08T02:48:23.236Z,-4.74
2018-02-08T02:49:23.251Z,-4.76
2018-02-08T02:50:23.268Z,-4.81
2018-02-08T02:51:23.263Z,-4.83
2018-02-08T02:52:23.262Z,-4.80
2018-02-08T02:53:23.266Z,-4.87
2018-02-08T02:54:23.279Z,-4.79
2018-02-08T02:55:23.294Z,-4.74
2018-02-08T02:56:23.294Z,-4.80
2018-02-08T02:57:23.296Z,-4.81
2018-02-08T02:58:23.306Z,-4.88
2018-02-08T02:59:23.309Z,-4.81
2018-02-08T03:00:23.322Z,-4.77
2018-02-08T03:01:23.378Z,-4.81
2018-02-08T03:02:23.323Z,-4.80
2018-02-08T03:03:23.339Z,-4.87
2018-02-08T03:04:23.341Z,-4.87
2018-02-08T03:05:23.360Z,-4.88
2018-02-08T03:06:23.352Z,-4.87
2018-02-08T03:07:23.353Z,-4.87
2018-02-08T03:08:23.371Z,-4.91
2018-02-08T03:09:23.374Z,-4.92
2018-02-08T03:10:23.369Z,-4.97
2018-02-08T03:11:23.384Z,-4.92
2018-02-08T03:12:23.397Z,-4.91
2018-02-08T03:13:23.398Z,-5.00
2018-02-08T03:14:23.406Z,-4.84
2018-02-08T03:15:23.404Z,-4.98
2018-02-08T03:16:23.416Z,-4.92
2018-02-08T03:17:23.438Z,-4.94
2018-02-08T03:18:23.434Z,-4.94
2018-02-08T03:19:23.423Z,-5.05
2018-02-08T03:20:23.441Z,-5.01
2018-02-08T03:21:23.442Z,-4.94
2018-02-08T03:22:23.452Z,-5.02
2018-02-08T03:23:23.464Z,-5.02
2018-02-08T03:24:23.458Z,-5.02
2018-02-08T03:25:23.471Z,-5.05
2018-02-08T03:26:23.478Z,-5.01
2018-02-08T03:27:23.480Z,-4.97
2018-02-08T03:28:23.487Z,-5.02
2018-02-08T03:29:23.488Z,-5.00
2018-02-08T03:30:23.498Z,-5.00
2018-02-08T03:31:23.510Z,-5.01
2018-02-08T03:32:23.518Z,-5.01
2018-02-08T03:33:23.515Z,-4.98
2018-02-08T03:34:23.524Z,-5.02
2018-02-08T03:35:23.530Z,-4.97
2018-02-08T03:36:23.540Z,-5.00
2018-02-08T03:37:23.533Z,-5.01
2018-02-08T03:38:23.546Z,-5.02
2018-02-08T03:39:23.553Z,-5.02
2018-02-08T03:40:23.563Z,-5.05
2018-02-08T03:41:23.573Z,-5.02
2018-02-08T03:42:23.571Z,-5.01
2018-02-08T03:43:23.574Z,-5.12
2018-02-08T03:44:23.589Z,-5.13
2018-02-08T03:45:23.590Z,-5.02
2018-02-08T03:46:23.589Z,-5.08
2018-02-08T03:47:23.600Z,-5.05
2018-02-08T03:48:23.611Z,-5.06
2018-02-08T03:49:23.618Z,-5.06
2018-02-08T03:50:23.616Z,-5.20
2018-02-08T03:51:23.618Z,-5.19
2018-02-08T03:52:23.634Z,-5.12
2018-02-08T03:53:23.685Z,-5.06
2018-02-08T03:54:23.636Z,-5.10
2018-02-08T03:55:23.653Z,-5.10
2018-02-08T03:56:23.656Z,-5.25
2018-02-08T03:57:23.669Z,-5.00
2018-02-08T03:58:23.674Z,-5.01
2018-02-08T03:59:23.673Z,-5.08
2018-02-08T04:00:23.681Z,-5.23
2018-02-08T04:01:23.701Z,-5.16
2018-02-08T04:02:23.696Z,-5.17
2018-02-08T04:03:23.704Z,-5.13
2018-02-08T04:04:23.700Z,-5.20
2018-02-08T04:05:23.713Z,-5.31
2018-02-08T04:06:23.722Z,-5.28
2018-02-08T04:07:23.714Z,-5.21
2018-02-08T04:08:23.724Z,-5.21
2018-02-08T04:09:23.730Z,-5.31
2018-02-08T04:10:23.739Z,-5.37
2018-02-08T04:11:23.751Z,-5.25
2018-02-08T04:12:23.748Z,-5.35
2018-02-08T04:13:23.763Z,-5.28
2018-02-08T04:14:23.769Z,-5.32
2018-02-08T04:15:23.781Z,-5.25
2018-02-08T04:16:23.777Z,-5.30
2018-02-08T04:17:23.774Z,-5.27
2018-02-08T04:18:23.784Z,-5.38
2018-02-08T04:19:23.801Z,-5.37
2018-02-08T04:20:23.793Z,-5.37
2018-02-08T04:21:23.808Z,-5.27
2018-02-08T04:22:23.813Z,-5.28
2018-02-08T04:23:23.823Z,-5.43
2018-02-08T04:24:23.817Z,-5.35
2018-02-08T04:25:23.821Z,-5.30
2018-02-08T04:26:23.836Z,-5.38
2018-02-08T04:27:23.847Z,-5.37
2018-02-08T04:28:23.840Z,-5.34
2018-02-08T04:29:23.855Z,-5.38
2018-02-08T04:30:23.861Z,-5.37
2018-02-08T04:31:23.865Z,-5.39
2018-02-08T04:32:23.876Z,-5.41
2018-02-08T04:33:23.867Z,-5.41
2018-02-08T04:34:23.876Z,-5.48
2018-02-08T04:35:23.895Z,-5.49
2018-02-08T04:36:23.894Z,-5.48
2018-02-08T04:37:23.899Z,-5.45
2018-02-08T04:38:23.909Z,-5.45
2018-02-08T04:39:23.911Z,-5.48
2018-02-08T04:40:23.925Z,-5.48
2018-02-08T04:41:23.916Z,-5.50
2018-02-08T04:42:23.934Z,-5.50
2018-02-08T04:43:23.939Z,-5.58
2018-02-08T04:44:23.941Z,-5.58
2018-02-08T04:45:23.943Z,-5.59
2018-02-08T04:46:23.962Z,-5.58
2018-02-08T04:47:23.954Z,-5.59
2018-02-08T04:48:23.969Z,-5.59
2018-02-08T04:49:23.976Z,-5.63
2018-02-08T04:50:23.973Z,-5.64
2018-02-08T04:51:23.984Z,-5.63
2018-02-08T04:52:23.989Z,-5.68
2018-02-08T04:53:24.003Z,-5.64
2018-02-08T04:54:24.001Z,-5.67
2018-02-08T04:55:24.004Z,-5.70
2018-02-08T04:56:24.018Z,-5.68
2018-02-08T04:57:24.014Z,-5.73
2018-02-08T04:58:24.016Z,-5.68
2018-02-08T04:59:24.034Z,-5.77
2018-02-08T05:00:24.039Z,-5.82
2018-02-08T05:01:24.050Z,-5.67
2018-02-08T05:02:24.063Z,-5.74
2018-02-08T05:03:24.049Z,-5.81
2018-02-08T05:04:24.061Z,-5.70
2018-02-08T05:05:24.055Z,-5.76
2018-02-08T05:06:24.065Z,-5.70
2018-02-08T05:07:24.075Z,-5.76
2018-02-08T05:08:24.079Z,-5.74
2018-02-08T05:09:24.097Z,-5.74
2018-02-08T05:10:24.092Z,-5.76
2018-02-08T05:11:24.093Z,-5.73
2018-02-08T05:12:24.108Z,-5.74
2018-02-08T05:13:24.103Z,-5.74
2018-02-08T05:14:24.113Z,-5.81
2018-02-08T05:15:24.124Z,-5.74
2018-02-08T05:16:24.129Z,-5.77
2018-02-08T05:17:24.130Z,-5.82
2018-02-08T05:18:24.138Z,-5.74
2018-02-08T05:19:24.146Z,-5.74
2018-02-08T05:20:24.154Z,-5.78
2018-02-08T05:21:24.147Z,-5.74
2018-02-08T05:22:24.159Z,-5.76
2018-02-08T05:23:24.169Z,-5.76
2018-02-08T05:24:24.179Z,-5.78
2018-02-08T05:25:24.170Z,-5.74
2018-02-08T05:26:24.180Z,-5.74
2018-02-08T05:27:24.192Z,-5.82
2018-02-08T05:28:24.199Z,-5.74
2018-02-08T05:29:24.195Z,-5.74
2018-02-08T05:30:24.209Z,-5.74
2018-02-08T05:31:24.210Z,-5.77
2018-02-08T05:32:24.229Z,-5.77
2018-02-08T05:33:24.220Z,-5.85
2018-02-08T05:34:24.225Z,-5.81
2018-02-08T05:35:24.238Z,-5.81
2018-02-08T05:36:24.240Z,-5.77
2018-02-08T05:37:24.242Z,-5.73
2018-02-08T05:38:24.250Z,-5.81
2018-02-08T05:39:24.255Z,-5.84
2018-02-08T05:40:24.263Z,-5.85
2018-02-08T05:41:24.263Z,-5.82
2018-02-08T05:42:24.274Z,-5.76
2018-02-08T05:43:24.286Z,-5.85
2018-02-08T05:44:24.276Z,-5.82
2018-02-08T05:45:24.289Z,-5.94
2018-02-08T05:46:24.302Z,-5.87
2018-02-08T05:47:24.304Z,-5.88
2018-02-08T05:48:24.301Z,-5.88
2018-02-08T05:49:24.311Z,-5.89
2018-02-08T05:50:24.315Z,-5.92
2018-02-08T05:51:24.317Z,-5.89
2018-02-08T05:52:24.324Z,-5.97
2018-02-08T05:53:24.353Z,-5.92
2018-02-08T05:54:24.344Z,-5.92
2018-02-08T05:55:24.341Z,-5.94
2018-02-08T05:56:24.353Z,-5.89
2018-02-08T05:57:24.356Z,-5.94
2018-02-08T05:58:24.366Z,-5.97
2018-02-08T05:59:24.363Z,-5.95
2018-02-08T06:00:24.366Z,-5.95
2018-02-08T06:01:24.379Z,-5.95
2018-02-08T06:02:24.389Z,-5.99
2018-02-08T06:03:24.384Z,-5.95
2018-02-08T06:04:24.402Z,-5.89
2018-02-08T06:05:24.400Z,-5.97
2018-02-08T06:06:24.426Z,-5.89
2018-02-08T06:07:24.412Z,-5.99
2018-02-08T06:08:24.415Z,-5.91
2018-02-08T06:09:24.425Z,-6.02
2018-02-08T06:10:24.422Z,-6.05
2018-02-08T06:11:24.428Z,-6.03
2018-02-08T06:12:24.459Z,-5.99
2018-02-08T06:13:24.450Z,-5.99
2018-02-08T06:14:24.440Z,-5.97
2018-02-08T06:15:24.453Z,-5.94
2018-02-08T06:16:24.462Z,-6.00
2018-02-08T06:17:24.474Z,-6.02
2018-02-08T06:18:24.474Z,-6.02
2018-02-08T06:19:24.497Z,-6.06
2018-02-08T06:20:24.486Z,-6.03
2018-02-08T06:21:24.485Z,-6.06
2018-02-08T06:22:24.488Z,-6.02
2018-02-08T06:23:24.500Z,-6.07
2018-02-08T06:24:24.507Z,-6.06
2018-02-08T06:25:24.508Z,-6.03
2018-02-08T06:26:24.516Z,-6.00
2018-02-08T06:27:24.521Z,-6.05
2018-02-08T06:28:24.532Z,-6.16
2018-02-08T06:29:24.533Z,-6.07
2018-02-08T06:30:24.537Z,-6.03
2018-02-08T06:31:24.552Z,-6.13
2018-02-08T06:32:24.541Z,-6.10
2018-02-08T06:33:24.554Z,-6.12
2018-02-08T06:34:24.579Z,-6.18
2018-02-08T06:35:24.569Z,-6.21
2018-02-08T06:36:24.566Z,-6.16
2018-02-08T06:37:24.570Z,-6.13
2018-02-08T06:38:24.580Z,-6.23
2018-02-08T06:39:24.580Z,-6.24
2018-02-08T06:40:24.609Z,-6.23
2018-02-08T06:41:24.600Z,-6.15
2018-02-08T06:42:24.612Z,-6.16
2018-02-08T06:43:24.601Z,-6.16
2018-02-08T06:44:24.615Z,-6.26
2018-02-08T06:45:24.619Z,-6.27
2018-02-08T06:46:24.617Z,-6.16
2018-02-08T06:47:24.629Z,-6.20
2018-02-08T06:48:24.634Z,-6.18
2018-02-08T06:49:24.644Z,-6.23
2018-02-08T06:50:24.645Z,-6.16
2018-02-08T06:51:24.657Z,-6.28
2018-02-08T06:52:24.660Z,-6.30
2018-02-08T06:53:24.665Z,-6.21
2018-02-08T06:54:24.665Z,-6.28
2018-02-08T06:55:24.675Z,-6.28
2018-02-08T06:56:24.681Z,-6.24
2018-02-08T06:57:24.678Z,-6.26
2018-02-08T06:58:24.686Z,-6.28
2018-02-08T06:59:24.692Z,-6.16
2018-02-08T07:00:24.713Z,-6.26
2018-02-08T07:01:24.709Z,-6.20
2018-02-08T07:02:24.706Z,-6.27
2018-02-08T07:03:24.718Z,-6.18
2018-02-08T07:04:24.715Z,-6.16
2018-02-08T07:05:24.725Z,-6.26
2018-02-08T07:06:24.741Z,-6.21
2018-02-08T07:07:24.742Z,-6.21
2018-02-08T07:08:24.742Z,-6.18
2018-02-08T07:09:24.742Z,-6.16
2018-02-08T07:10:24.757Z,-6.23
2018-02-08T07:11:24.755Z,-6.13
2018-02-08T07:12:24.759Z,-6.13
2018-02-08T07:13:24.772Z,-6.24
2018-02-08T07:14:24.783Z,-6.13
2018-02-08T07:15:24.777Z,-6.24
2018-02-08T07:16:24.785Z,-6.18
2018-02-08T07:17:24.791Z,-6.18
2018-02-08T07:18:24.801Z,-6.21
2018-02-08T07:19:24.804Z,-6.20
2018-02-08T07:20:24.803Z,-6.20
2018-02-08T07:21:24.820Z,-6.18
2018-02-08T07:22:24.814Z,-6.18
2018-02-08T07:23:24.829Z,-6.12
2018-02-08T07:24:24.832Z,-6.12
2018-02-08T07:25:24.840Z,-6.09
2018-02-08T07:26:24.833Z,-6.10
2018-02-08T07:27:24.849Z,-6.02
2018-02-08T07:28:24.850Z,-6.09
2018-02-08T07:29:24.864Z,-6.07
2018-02-08T07:30:24.865Z,-6.02
2018-02-08T07:31:24.864Z,-5.99
2018-02-08T07:32:24.874Z,-6.09
2018-02-08T07:33:24.885Z,-6.05
2018-02-08T07:34:24.888Z,-6.00
2018-02-08T07:35:24.887Z,-6.07
2018-02-08T07:36:24.906Z,-6.02
2018-02-08T07:37:24.923Z,-5.95
2018-02-08T07:38:24.902Z,-6.00
2018-02-08T07:39:24.923Z,-5.92
2018-02-08T07:40:24.918Z,-6.00
2018-02-08T07:41:24.935Z,-5.94
2018-02-08T07:42:24.927Z,-5.92
2018-02-08T07:43:24.932Z,-6.02
2018-02-08T07:44:24.950Z,-5.95
2018-02-08T07:45:24.953Z,-5.94
2018-02-08T07:46:24.951Z,-5.94
2018-02-08T07:47:24.961Z,-5.78
2018-02-08T07:48:24.967Z,-5.81
2018-02-08T07:49:24.971Z,-5.81
2018-02-08T07:50:24.976Z,-5.84
2018-02-08T07:51:24.992Z,-5.84
2018-02-08T07:52:24.997Z,-5.68
2018-02-08T07:53:25.000Z,-5.76
2018-02-08T07:54:24.992Z,-5.70
2018-02-08T07:55:25.006Z,-5.68
2018-02-08T07:56:25.013Z,-5.67
2018-02-08T07:57:25.029Z,-5.56
2018-02-08T07:58:25.021Z,-5.56
2018-02-08T07:59:25.026Z,-5.49
2018-02-08T08:00:25.045Z,-5.48
2018-02-08T08:01:25.045Z,-5.43
2018-02-08T08:02:25.044Z,-5.43
2018-02-08T08:03:25.052Z,-5.34
2018-02-08T08:04:25.056Z,-5.41
2018-02-08T08:05:25.070Z,-5.30
2018-02-08T08:06:25.066Z,-5.34
2018-02-08T08:07:25.077Z,-5.30
2018-02-08T08:08:25.087Z,-5.16
2018-02-08T08:09:25.092Z,-5.02
2018-02-08T08:10:25.089Z,-5.13
2018-02-08T08:11:25.102Z,-5.09
2018-02-08T08:12:25.103Z,-4.97
2018-02-08T08:13:25.117Z,-5.00
2018-02-08T08:14:25.124Z,-4.97
2018-02-08T08:15:25.118Z,-4.88
2018-02-08T08:16:25.136Z,-4.87
2018-02-08T08:17:25.138Z,-4.80
2018-02-08T08:18:25.145Z,-4.84
2018-02-08T08:19:25.159Z,-4.76
2018-02-08T08:20:25.166Z,-4.92
2018-02-08T08:21:25.166Z,-4.70
2018-02-08T08:22:25.189Z,-4.77
2018-02-08T08:23:25.177Z,-4.74
2018-02-08T08:24:25.188Z,-4.63
2018-02-08T08:25:25.189Z,-4.65
2018-02-08T08:26:25.193Z,-4.55
2018-02-08T08:27:25.239Z,-4.53
2018-02-08T08:28:25.210Z,-4.49
2018-02-08T08:29:25.222Z,-4.45
2018-02-08T08:30:25.220Z,-4.37
2018-02-08T08:31:25.235Z,-4.34
2018-02-08T08:32:25.235Z,-4.37
2018-02-08T08:33:25.240Z,-4.37
2018-02-08T08:34:25.248Z,-4.23
2018-02-08T08:35:25.252Z,-4.20
2018-02-08T08:36:25.260Z,-4.16
2018-02-08T08:37:25.269Z,-4.13
2018-02-08T08:38:25.281Z,-4.12
2018-02-08T08:39:25.283Z,-4.02
2018-02-08T08:40:25.297Z,-4.09
2018-02-08T08:41:25.298Z,-4.01
2018-02-08T08:42:25.297Z,-3.99
2018-02-08T08:43:25.318Z,-3.94
2018-02-08T08:44:25.316Z,-3.90
2018-02-08T08:45:25.327Z,-3.87
2018-02-08T08:46:25.340Z,-3.84
2018-02-08T08:47:25.331Z,-3.85
2018-02-08T08:48:25.343Z,-3.71
2018-02-08T08:49:25.363Z,-3.71
2018-02-08T08:50:25.354Z,-3.61
2018-02-08T08:51:25.366Z,-3.62
2018-02-08T08:52:25.372Z,-3.69
2018-02-08T08:53:25.387Z,-3.53
2018-02-08T08:54:25.385Z,-3.53
2018-02-08T08:55:25.391Z,-3.50
2018-02-08T08:56:25.401Z,-3.50
2018-02-08T08:57:25.407Z,-3.46
2018-02-08T08:58:25.414Z,-3.40
2018-02-08T08:59:25.428Z,-3.37
2018-02-08T09:00:25.429Z,-3.29
2018-02-08T09:01:25.443Z,-3.25
2018-02-08T09:02:25.443Z,-3.29
2018-02-08T09:03:25.451Z,-3.26
2018-02-08T09:04:25.504Z,-3.17
2018-02-08T09:05:25.465Z,-3.14
2018-02-08T09:06:25.473Z,-3.09
2018-02-08T09:07:25.485Z,-3.12
2018-02-08T09:08:25.491Z,-2.96
2018-02-08T09:09:25.505Z,-2.91
2018-02-08T09:10:25.503Z,-2.81
2018-02-08T09:11:25.510Z,-2.86
2018-02-08T09:12:25.515Z,-2.78
2018-02-08T09:13:25.524Z,-2.81
2018-02-08T09:14:25.535Z,-2.81
2018-02-08T09:15:25.543Z,-2.68
2018-02-08T09:16:25.550Z,-2.69
2018-02-08T09:17:25.566Z,-2.69
2018-02-08T09:18:25.572Z,-2.66
2018-02-08T09:19:25.576Z,-2.57
2018-02-08T09:20:25.606Z,-2.54
2018-02-08T09:21:25.591Z,-2.54
2018-02-08T09:22:25.594Z,-2.50
2018-02-08T09:23:25.601Z,-2.50
2018-02-08T09:24:25.606Z,-2.37
2018-02-08T09:25:25.634Z,-2.34
2018-02-08T09:26:25.633Z,-2.29
2018-02-08T09:27:25.636Z,-2.37
2018-02-08T09:28:25.647Z,-2.33
2018-02-08T09:29:25.656Z,-2.26
2018-02-08T09:30:25.665Z,-2.22
2018-02-08T09:31:25.673Z,-2.20
2018-02-08T09:32:25.701Z,-2.17
2018-02-08T09:33:25.694Z,-2.08
2018-02-08T09:34:25.687Z,-2.08
2018-02-08T09:35:25.692Z,-2.11
2018-02-08T09:36:25.740Z,-2.10
2018-02-08T09:37:25.711Z,-1.99
2018-02-08T09:38:25.725Z,-1.92
2018-02-08T09:39:25.737Z,-1.79
2018-02-08T09:40:25.744Z,-1.90
2018-02-08T09:41:25.744Z,-1.89
2018-02-08T09:42:25.752Z,-1.79
2018-02-08T09:43:25.766Z,-1.72
2018-02-08T09:44:25.775Z,-1.68
2018-02-08T09:45:25.790Z,-1.64
2018-02-08T09:46:25.795Z,-1.64
2018-02-08T09:47:25.804Z,-1.60
2018-02-08T09:48:25.817Z,-1.61
2018-02-08T09:49:25.816Z,-1.46
2018-02-08T09:50:25.826Z,-1.46
2018-02-08T09:51:25.842Z,-1.50
2018-02-08T09:52:25.845Z,-1.46
2018-02-08T09:53:25.862Z,-1.40
2018-02-08T09:54:25.866Z,-1.38
2018-02-08T09:55:25.872Z,-1.25
2018-02-08T09:56:25.885Z,-1.32
2018-02-08T09:57:25.887Z,-1.21
2018-02-08T09:58:25.898Z,-1.18
2018-02-08T09:59:25.910Z,-1.27
2018-02-08T10:00:25.920Z,-1.21
2018-02-08T10:01:25.930Z,-1.24
2018-02-08T10:02:25.935Z,-1.12
2018-02-08T10:03:25.940Z,-1.09
2018-02-08T10:04:25.957Z,-1.06
2018-02-08T10:05:25.959Z,-1.12
2018-02-08T10:06:25.968Z,-0.93
2018-02-08T10:07:25.984Z,-0.91
2018-02-08T10:08:25.989Z,-0.94
2018-02-08T10:09:26.001Z,-0.93
2018-02-08T10:10:26.012Z,-0.94
2018-02-08T10:11:26.011Z,-0.80
2018-02-08T10:12:26.027Z,-0.89
2018-02-08T10:13:26.034Z,-0.85
2018-02-08T10:14:26.041Z,-0.77
2018-02-08T10:15:26.052Z,-0.74
2018-02-08T10:16:26.058Z,-0.77
2018-02-08T10:17:26.072Z,-0.72
2018-02-08T10:18:26.080Z,-0.66
2018-02-08T10:19:26.086Z,-0.66
2018-02-08T10:20:26.096Z,-0.64
2018-02-08T10:21:26.105Z,-0.56
2018-02-08T10:22:26.112Z,-0.59
2018-02-08T10:23:26.122Z,-0.59
2018-02-08T10:24:26.145Z,-0.51
2018-02-08T10:25:26.148Z,-0.51
2018-02-08T10:26:26.154Z,-0.53
2018-02-08T10:27:26.155Z,-0.45
2018-02-08T10:28:26.181Z,-0.45
2018-02-08T10:29:26.173Z,-0.44
2018-02-08T10:30:26.182Z,-0.41
2018-02-08T10:31:26.198Z,-0.28
2018-02-08T10:32:26.201Z,-0.35
2018-02-08T10:33:26.212Z,-0.46
2018-02-08T10:34:26.221Z,-0.31
2018-02-08T10:35:26.230Z,-0.36
2018-02-08T10:36:26.244Z,-0.27
2018-02-08T10:37:26.246Z,-0.20
2018-02-08T10:38:26.256Z,-0.26
2018-02-08T10:39:26.267Z,-0.23
2018-02-08T10:40:26.273Z,-0.18
2018-02-08T10:41:26.282Z,-0.06
2018-02-08T10:42:26.291Z,-0.15
2018-02-08T10:43:26.295Z,-0.09
2018-02-08T10:44:26.310Z,-0.13
2018-02-08T10:45:26.318Z,-0.06
2018-02-08T10:46:26.324Z,-0.06
2018-02-08T10:47:26.342Z,0.01
2018-02-08T10:48:26.356Z,-0.02
2018-02-08T10:49:26.366Z,0.02
2018-02-08T10:50:26.374Z,0.01
2018-02-08T10:51:26.384Z,0.08
2018-02-08T10:52:26.413Z,0.06
2018-02-08T10:53:26.399Z,0.11
2018-02-08T10:54:26.408Z,0.01
2018-02-08T10:55:26.421Z,0.00
2018-02-08T10:56:26.424Z,0.13
2018-02-08T10:57:26.435Z,0.06
2018-02-08T10:58:26.446Z,0.18
2018-02-08T10:59:26.454Z,0.20
2018-02-08T11:00:26.467Z,0.19
2018-02-08T11:01:26.474Z,0.13
2018-02-08T11:02:26.478Z,0.11
2018-02-08T11:03:26.491Z,0.24
2018-02-08T11:04:26.512Z,0.24
2018-02-08T11:05:26.511Z,0.27
2018-02-08T11:06:26.520Z,0.29
2018-02-08T11:07:26.538Z,0.26
2018-02-08T11:08:26.550Z,0.33
2018-02-08T11:09:26.551Z,0.31
2018-02-08T11:10:26.562Z,0.33
2018-02-08T11:11:26.579Z,0.31
2018-02-08T11:12:26.580Z,0.26
2018-02-08T11:13:26.594Z,0.36
2018-02-08T11:14:26.602Z,0.33
2018-02-08T11:15:26.607Z,0.30
2018-02-08T11:16:26.622Z,0.33
2018-02-08T11:17:26.630Z,0.37
2018-02-08T11:18:26.635Z,0.33
2018-02-08T11:19:26.650Z,0.42
2018-02-08T11:20:26.651Z,0.40
2018-02-08T11:21:26.679Z,0.39
2018-02-08T11:22:26.684Z,0.42
2018-02-08T11:23:26.694Z,0.42
2018-02-08T11:24:26.705Z,0.39
2018-02-08T11:25:26.708Z,0.52
2018-02-08T11:26:26.722Z,0.49
2018-02-08T11:27:26.734Z,0.45
2018-02-08T11:28:26.734Z,0.48
2018-02-08T11:29:26.748Z,0.51
2018-02-08T11:30:26.765Z,0.55
2018-02-08T11:31:26.763Z,0.48
2018-02-08T11:32:26.773Z,0.49
2018-02-08T11:33:26.789Z,0.59
2018-02-08T11:34:26.799Z,0.61
2018-02-08T11:35:26.817Z,0.55
2018-02-08T11:36:26.818Z,0.66
2018-02-08T11:37:26.835Z,0.61
2018-02-08T11:38:26.840Z,0.64
2018-02-08T11:39:26.849Z,0.59
2018-02-08T11:40:26.856Z,0.67
2018-02-08T11:41:26.861Z,0.66
2018-02-08T11:42:26.870Z,0.67
2018-02-08T11:43:26.883Z,0.70
2018-02-08T11:44:26.895Z,0.74
2018-02-08T11:45:26.920Z,0.74
2018-02-08T11:46:26.925Z,0.70
2018-02-08T11:47:26.941Z,0.68
2018-02-08T11:48:26.938Z,0.76
2018-02-08T11:49:26.954Z,0.78
2018-02-08T11:50:26.961Z,0.74
2018-02-08T11:51:26.965Z,0.77
2018-02-08T11:52:26.975Z,0.84
2018-02-08T11:53:26.982Z,0.74
2018-02-08T11:54:26.996Z,0.81
2018-02-08T11:55:27.016Z,0.88
2018-02-08T11:56:27.023Z,0.85
2018-02-08T11:57:27.035Z,0.81
2018-02-08T11:58:27.045Z,0.82
2018-02-08T11:59:27.048Z,0.81
2018-02-08T12:00:27.060Z,0.85
2018-02-08T12:01:27.065Z,0.85
2018-02-08T12:02:27.073Z,0.86
2018-02-08T12:03:27.086Z,0.82
2018-02-08T12:04:27.100Z,0.86
2018-02-08T12:05:27.115Z,0.91
2018-02-08T12:06:27.126Z,0.96
2018-02-08T12:07:27.129Z,0.94
2018-02-08T12:08:27.147Z,0.89
2018-02-08T12:09:27.150Z,0.95
2018-02-08T12:10:27.158Z,0.92
2018-02-08T12:11:27.174Z,0.96
2018-02-08T12:12:27.174Z,0.99
2018-02-08T12:13:27.193Z,1.06
2018-02-08T12:14:27.214Z,1.04
2018-02-08T12:15:27.214Z,1.03
2018-02-08T12:16:27.229Z,1.06
2018-02-08T12:17:27.238Z,0.96
2018-02-08T12:18:27.242Z,1.04
2018-02-08T12:19:27.256Z,1.04
2018-02-08T12:20:27.260Z,1.09
2018-02-08T12:21:27.273Z,1.03
2018-02-08T12:22:27.288Z,1.04
2018-02-08T12:23:27.301Z,1.14
2018-02-08T12:24:27.311Z,1.12
2018-02-08T12:25:27.341Z,1.09
2018-02-08T12:26:27.324Z,1.06
2018-02-08T12:27:27.343Z,1.27
2018-02-08T12:28:27.344Z,1.21
2018-02-08T12:29:27.360Z,1.24
2018-02-08T12:30:27.382Z,1.14
2018-02-08T12:31:27.385Z,1.25
2018-02-08T12:32:27.398Z,1.28
2018-02-08T12:33:27.405Z,1.25
2018-02-08T12:34:27.407Z,1.18
2018-02-08T12:35:27.421Z,1.24
2018-02-08T12:36:27.425Z,1.27
2018-02-08T12:37:27.450Z,1.24
2018-02-08T12:38:27.466Z,1.21
2018-02-08T12:39:27.469Z,1.24
2018-02-08T12:40:27.480Z,1.28
2018-02-08T12:41:27.485Z,1.32
2018-02-08T12:42:27.493Z,1.32
2018-02-08T12:43:27.508Z,1.36
2018-02-08T12:44:27.514Z,1.32
2018-02-08T12:45:27.541Z,1.28
2018-02-08T12:46:27.545Z,1.30
2018-02-08T12:47:27.551Z,1.32
2018-02-08T12:48:27.567Z,1.31
2018-02-08T12:49:27.570Z,1.32
2018-02-08T12:50:27.578Z,1.30
2018-02-08T12:51:27.592Z,1.36
2018-02-08T12:52:27.608Z,1.27
2018-02-08T12:53:27.623Z,1.36
2018-02-08T12:54:27.631Z,1.34
2018-02-08T12:55:27.636Z,1.28
2018-02-08T12:56:27.653Z,1.25